Terminal Aerodrome Forecast
Issued by NWS

Home | Current Version | Previous Version | Text Only | Print | Product List | Glossary On
Versions: 1 2 3 4 5 6 7 8 9 10 11 12 13 14 15
274
FTUS43 KGRB 311134
TAFATW
TAF
KATW 311134Z 3112/0112 06010KT P6SM SCT120
     FM312000 09010KT P6SM SCT040 BKN120
     FM010100 12007KT P6SM -SHRA SCT040 OVC070
     FM010700 15007KT P6SM -SHRA BKN035 OVC070
      TEMPO 0109/0112 5SM -TSRA BKN025CB=

USA.gov is the U.S. government's official web portal to all federal, state and local government web resources and services.